sensor_id;sensor_type;location;lat;lon;timestamp;P1;durP1;ratioP1;P2;durP2;ratioP2
10825;SDS011;5466;55.898;14.094;2023-11-19T00:01:48;13.63;;;8.83;;
10825;SDS011;5466;55.898;14.094;2023-11-19T00:03:49;12.90;;;8.57;;
10825;SDS011;5466;55.898;14.094;2023-11-19T00:05:49;13.03;;;8.60;;
10825;SDS011;5466;55.898;14.094;2023-11-19T00:07:50;14.30;;;8.47;;
10825;SDS011;5466;55.898;14.094;2023-11-19T00:09:52;15.63;;;9.17;;
10825;SDS011;5466;55.898;14.094;2023-11-19T00:11:55;13.73;;;9.00;;
10825;SDS011;5466;55.898;14.094;2023-11-19T00:13:55;15.17;;;9.20;;
10825;SDS011;5466;55.898;14.094;2023-11-19T00:15:56;19.20;;;10.37;;
10825;SDS011;5466;55.898;14.094;2023-11-19T00:17:57;14.83;;;9.53;;
10825;SDS011;5466;55.898;14.094;2023-11-19T00:19:57;15.73;;;9.67;;
10825;SDS011;5466;55.898;14.094;2023-11-19T00:21:58;16.20;;;9.63;;
10825;SDS011;5466;55.898;14.094;2023-11-19T00:24:02;14.43;;;9.23;;
10825;SDS011;5466;55.898;14.094;2023-11-19T00:26:04;18.33;;;9.50;;
10825;SDS011;5466;55.898;14.094;2023-11-19T00:28:06;15.07;;;9.87;;
10825;SDS011;5466;55.898;14.094;2023-11-19T00:30:06;12.03;;;9.67;;
10825;SDS011;5466;55.898;14.094;2023-11-19T00:32:10;12.43;;;9.27;;
10825;SDS011;5466;55.898;14.094;2023-11-19T00:34:11;14.17;;;9.73;;
10825;SDS011;5466;55.898;14.094;2023-11-19T00:36:12;25.33;;;10.10;;
10825;SDS011;5466;55.898;14.094;2023-11-19T00:38:13;15.10;;;9.83;;
10825;SDS011;5466;55.898;14.094;2023-11-19T00:40:14;17.93;;;10.03;;
10825;SDS011;5466;55.898;14.094;2023-11-19T00:42:16;15.20;;;9.43;;
10825;SDS011;5466;55.898;14.094;2023-11-19T00:44:16;14.87;;;9.73;;
10825;SDS011;5466;55.898;14.094;2023-11-19T00:46:17;15.13;;;9.40;;
10825;SDS011;5466;55.898;14.094;2023-11-19T00:48:18;14.63;;;9.53;;
10825;SDS011;5466;55.898;14.094;2023-11-19T00:50:19;16.57;;;9.80;;
10825;SDS011;5466;55.898;14.094;2023-11-19T00:52:19;16.77;;;9.07;;
10825;SDS011;5466;55.898;14.094;2023-11-19T00:54:20;16.13;;;9.30;;
10825;SDS011;5466;55.898;14.094;2023-11-19T00:56:21;21.23;;;10.50;;
10825;SDS011;5466;55.898;14.094;2023-11-19T00:58:21;14.20;;;9.43;;
10825;SDS011;5466;55.898;14.094;2023-11-19T01:00:22;14.40;;;9.27;;
10825;SDS011;5466;55.898;14.094;2023-11-19T01:02:24;16.00;;;9.47;;
10825;SDS011;5466;55.898;14.094;2023-11-19T01:04:25;16.80;;;10.13;;
10825;SDS011;5466;55.898;14.094;2023-11-19T01:06:26;17.03;;;10.17;;
10825;SDS011;5466;55.898;14.094;2023-11-19T01:08:31;12.63;;;9.10;;
10825;SDS011;5466;55.898;14.094;2023-11-19T01:10:31;15.03;;;8.90;;
10825;SDS011;5466;55.898;14.094;2023-11-19T01:12:32;19.50;;;9.43;;
10825;SDS011;5466;55.898;14.094;2023-11-19T01:14:32;15.33;;;9.27;;
10825;SDS011;5466;55.898;14.094;2023-11-19T01:16:33;13.27;;;8.10;;
10825;SDS011;5466;55.898;14.094;2023-11-19T01:18:34;12.83;;;9.27;;
10825;SDS011;5466;55.898;14.094;2023-11-19T01:20:36;14.27;;;9.33;;
10825;SDS011;5466;55.898;14.094;2023-11-19T01:22:36;16.57;;;9.63;;
10825;SDS011;5466;55.898;14.094;2023-11-19T01:24:37;13.97;;;9.47;;
10825;SDS011;5466;55.898;14.094;2023-11-19T01:26:38;13.40;;;8.77;;
10825;SDS011;5466;55.898;14.094;2023-11-19T01:28:38;13.57;;;9.37;;
10825;SDS011;5466;55.898;14.094;2023-11-19T01:30:43;14.03;;;9.50;;
10825;SDS011;5466;55.898;14.094;2023-11-19T01:32:43;16.60;;;9.73;;
10825;SDS011;5466;55.898;14.094;2023-11-19T01:34:44;16.40;;;10.30;;
10825;SDS011;5466;55.898;14.094;2023-11-19T01:36:46;13.00;;;9.10;;
10825;SDS011;5466;55.898;14.094;2023-11-19T01:38:47;16.83;;;9.37;;
10825;SDS011;5466;55.898;14.094;2023-11-19T01:40:47;13.47;;;9.30;;
10825;SDS011;5466;55.898;14.094;2023-11-19T01:42:48;15.77;;;9.90;;
10825;SDS011;5466;55.898;14.094;2023-11-19T01:44:59;14.30;;;8.93;;
10825;SDS011;5466;55.898;14.094;2023-11-19T01:47:00;14.87;;;8.73;;
10825;SDS011;5466;55.898;14.094;2023-11-19T01:49:02;13.27;;;9.00;;
10825;SDS011;5466;55.898;14.094;2023-11-19T01:51:05;17.43;;;9.33;;
10825;SDS011;5466;55.898;14.094;2023-11-19T01:53:06;21.33;;;9.37;;
10825;SDS011;5466;55.898;14.094;2023-11-19T01:55:07;16.97;;;9.03;;
10825;SDS011;5466;55.898;14.094;2023-11-19T01:57:10;14.77;;;8.83;;
10825;SDS011;5466;55.898;14.094;2023-11-19T01:59:11;13.40;;;9.10;;
10825;SDS011;5466;55.898;14.094;2023-11-19T02:01:16;12.87;;;8.67;;
10825;SDS011;5466;55.898;14.094;2023-11-19T02:03:17;15.03;;;9.17;;
10825;SDS011;5466;55.898;14.094;2023-11-19T02:05:17;15.33;;;9.13;;
10825;SDS011;5466;55.898;14.094;2023-11-19T02:07:18;16.83;;;9.77;;
10825;SDS011;5466;55.898;14.094;2023-11-19T02:09:19;14.63;;;9.27;;
10825;SDS011;5466;55.898;14.094;2023-11-19T02:11:20;11.83;;;8.37;;
10825;SDS011;5466;55.898;14.094;2023-11-19T02:13:20;17.13;;;8.80;;
10825;SDS011;5466;55.898;14.094;2023-11-19T02:15:21;12.57;;;8.50;;
10825;SDS011;5466;55.898;14.094;2023-11-19T02:17:27;11.00;;;7.87;;
10825;SDS011;5466;55.898;14.094;2023-11-19T02:19:31;13.70;;;8.50;;
10825;SDS011;5466;55.898;14.094;2023-11-19T02:21:32;13.63;;;8.57;;
10825;SDS011;5466;55.898;14.094;2023-11-19T02:23:32;12.70;;;8.33;;
10825;SDS011;5466;55.898;14.094;2023-11-19T02:25:33;13.50;;;8.80;;
10825;SDS011;5466;55.898;14.094;2023-11-19T02:29:39;14.50;;;8.90;;
10825;SDS011;5466;55.898;14.094;2023-11-19T02:31:39;12.83;;;8.90;;
10825;SDS011;5466;55.898;14.094;2023-11-19T02:33:40;12.77;;;8.60;;
10825;SDS011;5466;55.898;14.094;2023-11-19T02:35:41;13.40;;;8.50;;
10825;SDS011;5466;55.898;14.094;2023-11-19T02:37:41;13.27;;;8.37;;
10825;SDS011;5466;55.898;14.094;2023-11-19T02:39:42;12.37;;;8.70;;
10825;SDS011;5466;55.898;14.094;2023-11-19T02:41:42;14.03;;;8.80;;
10825;SDS011;5466;55.898;14.094;2023-11-19T02:43:43;15.23;;;8.33;;
10825;SDS011;5466;55.898;14.094;2023-11-19T02:45:44;10.50;;;7.27;;
10825;SDS011;5466;55.898;14.094;2023-11-19T02:47:45;16.27;;;9.10;;
10825;SDS011;5466;55.898;14.094;2023-11-19T02:49:46;12.80;;;9.00;;
10825;SDS011;5466;55.898;14.094;2023-11-19T02:51:47;13.07;;;8.07;;
10825;SDS011;5466;55.898;14.094;2023-11-19T02:53:48;17.57;;;8.33;;
10825;SDS011;5466;55.898;14.094;2023-11-19T02:55:49;12.70;;;7.57;;
10825;SDS011;5466;55.898;14.094;2023-11-19T02:57:50;11.93;;;7.93;;
10825;SDS011;5466;55.898;14.094;2023-11-19T02:59:53;12.50;;;7.97;;
10825;SDS011;5466;55.898;14.094;2023-11-19T03:01:56;11.53;;;8.07;;
10825;SDS011;5466;55.898;14.094;2023-11-19T03:03:58;14.70;;;7.50;;
10825;SDS011;5466;55.898;14.094;2023-11-19T03:06:02;11.50;;;8.30;;
10825;SDS011;5466;55.898;14.094;2023-11-19T03:08:05;12.03;;;7.30;;
10825;SDS011;5466;55.898;14.094;2023-11-19T03:10:06;12.10;;;7.97;;
10825;SDS011;5466;55.898;14.094;2023-11-19T03:12:09;11.37;;;8.20;;
10825;SDS011;5466;55.898;14.094;2023-11-19T03:14:09;14.90;;;7.53;;
10825;SDS011;5466;55.898;14.094;2023-11-19T03:16:10;10.67;;;7.50;;
10825;SDS011;5466;55.898;14.094;2023-11-19T03:18:11;12.23;;;8.13;;
10825;SDS011;5466;55.898;14.094;2023-11-19T03:20:12;10.23;;;7.70;;
10825;SDS011;5466;55.898;14.094;2023-11-19T03:22:16;14.10;;;7.87;;
10825;SDS011;5466;55.898;14.094;2023-11-19T03:24:17;14.47;;;7.43;;
10825;SDS011;5466;55.898;14.094;2023-11-19T03:26:18;12.37;;;7.37;;
10825;SDS011;5466;55.898;14.094;2023-11-19T03:28:18;12.67;;;7.57;;
10825;SDS011;5466;55.898;14.094;2023-11-19T03:30:19;9.73;;;6.60;;
10825;SDS011;5466;55.898;14.094;2023-11-19T03:32:20;11.10;;;6.80;;
10825;SDS011;5466;55.898;14.094;2023-11-19T03:34:21;11.13;;;7.03;;
10825;SDS011;5466;55.898;14.094;2023-11-19T03:36:22;9.97;;;7.50;;
10825;SDS011;5466;55.898;14.094;2023-11-19T03:38:23;10.37;;;6.73;;
10825;SDS011;5466;55.898;14.094;2023-11-19T03:40:24;10.93;;;6.60;;
10825;SDS011;5466;55.898;14.094;2023-11-19T03:42:28;8.93;;;6.50;;
10825;SDS011;5466;55.898;14.094;2023-11-19T03:44:32;11.37;;;6.47;;
10825;SDS011;5466;55.898;14.094;2023-11-19T03:46:32;10.67;;;7.10;;
10825;SDS011;5466;55.898;14.094;2023-11-19T03:48:33;11.73;;;7.20;;
10825;SDS011;5466;55.898;14.094;2023-11-19T03:50:34;13.13;;;7.67;;
10825;SDS011;5466;55.898;14.094;2023-11-19T03:52:35;12.00;;;7.10;;
10825;SDS011;5466;55.898;14.094;2023-11-19T03:54:36;9.47;;;6.87;;
10825;SDS011;5466;55.898;14.094;2023-11-19T03:56:37;11.03;;;7.30;;
10825;SDS011;5466;55.898;14.094;2023-11-19T03:58:37;13.97;;;6.90;;
10825;SDS011;5466;55.898;14.094;2023-11-19T04:00:39;10.43;;;6.50;;
10825;SDS011;5466;55.898;14.094;2023-11-19T04:02:40;10.87;;;6.70;;
10825;SDS011;5466;55.898;14.094;2023-11-19T04:04:41;12.50;;;8.10;;
10825;SDS011;5466;55.898;14.094;2023-11-19T04:06:42;11.23;;;7.57;;
10825;SDS011;5466;55.898;14.094;2023-11-19T04:08:43;10.85;;;6.82;;
10825;SDS011;5466;55.898;14.094;2023-11-19T04:10:44;10.17;;;7.07;;
10825;SDS011;5466;55.898;14.094;2023-11-19T04:12:45;14.03;;;8.00;;
10825;SDS011;5466;55.898;14.094;2023-11-19T04:14:46;11.13;;;7.17;;
10825;SDS011;5466;55.898;14.094;2023-11-19T04:16:46;10.03;;;6.70;;
10825;SDS011;5466;55.898;14.094;2023-11-19T04:18:47;14.30;;;7.18;;
10825;SDS011;5466;55.898;14.094;2023-11-19T04:20:48;14.10;;;6.90;;
10825;SDS011;5466;55.898;14.094;2023-11-19T04:22:49;11.80;;;6.28;;
10825;SDS011;5466;55.898;14.094;2023-11-19T04:24:51;8.48;;;5.20;;
10825;SDS011;5466;55.898;14.094;2023-11-19T04:26:51;10.57;;;6.13;;
10825;SDS011;5466;55.898;14.094;2023-11-19T04:28:52;11.17;;;6.43;;
10825;SDS011;5466;55.898;14.094;2023-11-19T04:30:53;9.45;;;5.85;;
10825;SDS011;5466;55.898;14.094;2023-11-19T04:32:53;9.85;;;6.20;;
10825;SDS011;5466;55.898;14.094;2023-11-19T04:34:54;10.98;;;7.13;;
10825;SDS011;5466;55.898;14.094;2023-11-19T04:36:55;11.23;;;6.53;;
10825;SDS011;5466;55.898;14.094;2023-11-19T04:38:55;12.93;;;6.78;;
10825;SDS011;5466;55.898;14.094;2023-11-19T04:40:56;14.13;;;7.35;;
10825;SDS011;5466;55.898;14.094;2023-11-19T04:42:57;16.08;;;7.60;;
10825;SDS011;5466;55.898;14.094;2023-11-19T04:44:57;16.13;;;7.32;;
10825;SDS011;5466;55.898;14.094;2023-11-19T04:46:58;12.68;;;7.20;;
10825;SDS011;5466;55.898;14.094;2023-11-19T04:48:59;14.20;;;7.65;;
10825;SDS011;5466;55.898;14.094;2023-11-19T04:50:59;12.77;;;7.13;;
10825;SDS011;5466;55.898;14.094;2023-11-19T04:53:00;14.43;;;7.88;;
10825;SDS011;5466;55.898;14.094;2023-11-19T04:55:00;13.00;;;7.77;;
10825;SDS011;5466;55.898;14.094;2023-11-19T04:57:01;16.93;;;7.80;;
10825;SDS011;5466;55.898;14.094;2023-11-19T04:59:02;14.47;;;7.77;;
10825;SDS011;5466;55.898;14.094;2023-11-19T05:01:05;14.55;;;7.80;;
10825;SDS011;5466;55.898;14.094;2023-11-19T05:03:06;15.27;;;7.60;;
10825;SDS011;5466;55.898;14.094;2023-11-19T05:05:07;13.20;;;7.85;;
10825;SDS011;5466;55.898;14.094;2023-11-19T05:07:09;16.48;;;8.07;;
10825;SDS011;5466;55.898;14.094;2023-11-19T05:09:09;16.63;;;8.85;;
10825;SDS011;5466;55.898;14.094;2023-11-19T05:11:13;17.23;;;9.88;;
10825;SDS011;5466;55.898;14.094;2023-11-19T05:13:19;17.52;;;8.60;;
10825;SDS011;5466;55.898;14.094;2023-11-19T05:15:19;15.82;;;9.18;;
10825;SDS011;5466;55.898;14.094;2023-11-19T05:17:20;18.42;;;9.68;;
10825;SDS011;5466;55.898;14.094;2023-11-19T05:19:21;24.15;;;9.50;;
10825;SDS011;5466;55.898;14.094;2023-11-19T05:21:21;16.58;;;8.77;;
10825;SDS011;5466;55.898;14.094;2023-11-19T05:23:22;18.27;;;9.43;;
10825;SDS011;5466;55.898;14.094;2023-11-19T05:25:22;17.63;;;9.48;;
10825;SDS011;5466;55.898;14.094;2023-11-19T05:27:23;20.00;;;10.02;;
10825;SDS011;5466;55.898;14.094;2023-11-19T05:29:24;21.52;;;9.98;;
10825;SDS011;5466;55.898;14.094;2023-11-19T05:31:25;17.13;;;10.48;;
10825;SDS011;5466;55.898;14.094;2023-11-19T05:33:25;16.02;;;9.38;;
10825;SDS011;5466;55.898;14.094;2023-11-19T05:35:26;21.63;;;11.10;;
10825;SDS011;5466;55.898;14.094;2023-11-19T05:37:27;19.88;;;10.32;;
10825;SDS011;5466;55.898;14.094;2023-11-19T05:39:27;17.98;;;10.30;;
10825;SDS011;5466;55.898;14.094;2023-11-19T05:41:28;20.38;;;10.35;;
10825;SDS011;5466;55.898;14.094;2023-11-19T05:43:29;19.75;;;10.68;;
10825;SDS011;5466;55.898;14.094;2023-11-19T05:45:29;21.23;;;10.50;;
10825;SDS011;5466;55.898;14.094;2023-11-19T05:47:30;22.02;;;11.73;;
10825;SDS011;5466;55.898;14.094;2023-11-19T05:49:31;18.77;;;11.05;;
10825;SDS011;5466;55.898;14.094;2023-11-19T05:51:31;20.70;;;9.98;;
10825;SDS011;5466;55.898;14.094;2023-11-19T05:53:35;19.10;;;11.82;;
10825;SDS011;5466;55.898;14.094;2023-11-19T05:55:37;22.60;;;11.23;;
10825;SDS011;5466;55.898;14.094;2023-11-19T05:57:46;22.08;;;10.65;;
10825;SDS011;5466;55.898;14.094;2023-11-19T05:59:46;24.38;;;12.68;;
10825;SDS011;5466;55.898;14.094;2023-11-19T06:01:47;23.27;;;12.27;;
10825;SDS011;5466;55.898;14.094;2023-11-19T06:03:47;20.42;;;11.07;;
10825;SDS011;5466;55.898;14.094;2023-11-19T06:05:50;22.50;;;13.05;;
10825;SDS011;5466;55.898;14.094;2023-11-19T06:07:50;20.05;;;11.73;;
10825;SDS011;5466;55.898;14.094;2023-11-19T06:09:51;22.80;;;12.80;;
10825;SDS011;5466;55.898;14.094;2023-11-19T06:11:52;22.95;;;12.43;;
10825;SDS011;5466;55.898;14.094;2023-11-19T06:13:52;22.20;;;12.77;;
10825;SDS011;5466;55.898;14.094;2023-11-19T06:15:53;24.73;;;13.10;;
10825;SDS011;5466;55.898;14.094;2023-11-19T06:17:54;22.67;;;12.73;;
10825;SDS011;5466;55.898;14.094;2023-11-19T06:19:55;21.63;;;12.85;;
10825;SDS011;5466;55.898;14.094;2023-11-19T06:21:55;20.92;;;11.90;;
10825;SDS011;5466;55.898;14.094;2023-11-19T06:23:56;21.17;;;11.82;;
10825;SDS011;5466;55.898;14.094;2023-11-19T06:25:56;19.83;;;12.15;;
10825;SDS011;5466;55.898;14.094;2023-11-19T06:27:57;26.75;;;13.23;;
10825;SDS011;5466;55.898;14.094;2023-11-19T06:29:58;22.90;;;12.93;;
10825;SDS011;5466;55.898;14.094;2023-11-19T06:31:58;26.17;;;12.52;;
10825;SDS011;5466;55.898;14.094;2023-11-19T06:34:00;20.83;;;11.90;;
10825;SDS011;5466;55.898;14.094;2023-11-19T06:36:00;24.23;;;12.95;;
10825;SDS011;5466;55.898;14.094;2023-11-19T06:38:04;19.85;;;10.90;;
10825;SDS011;5466;55.898;14.094;2023-11-19T06:40:05;17.23;;;10.70;;
10825;SDS011;5466;55.898;14.094;2023-11-19T06:42:06;16.77;;;11.30;;
10825;SDS011;5466;55.898;14.094;2023-11-19T06:44:07;22.20;;;12.15;;
10825;SDS011;5466;55.898;14.094;2023-11-19T06:46:14;19.15;;;11.75;;
10825;SDS011;5466;55.898;14.094;2023-11-19T06:48:18;15.77;;;11.02;;
10825;SDS011;5466;55.898;14.094;2023-11-19T06:50:18;18.00;;;12.43;;
10825;SDS011;5466;55.898;14.094;2023-11-19T06:52:19;19.23;;;11.95;;
10825;SDS011;5466;55.898;14.094;2023-11-19T06:54:20;19.42;;;11.75;;
10825;SDS011;5466;55.898;14.094;2023-11-19T06:56:21;20.40;;;12.15;;
10825;SDS011;5466;55.898;14.094;2023-11-19T06:58:23;23.58;;;11.13;;
10825;SDS011;5466;55.898;14.094;2023-11-19T07:00:23;18.98;;;11.68;;
10825;SDS011;5466;55.898;14.094;2023-11-19T07:02:24;20.95;;;12.25;;
10825;SDS011;5466;55.898;14.094;2023-11-19T07:04:25;18.23;;;11.80;;
10825;SDS011;5466;55.898;14.094;2023-11-19T07:06:25;19.17;;;12.45;;
10825;SDS011;5466;55.898;14.094;2023-11-19T07:08:26;17.40;;;11.95;;
10825;SDS011;5466;55.898;14.094;2023-11-19T07:10:27;17.52;;;12.82;;
10825;SDS011;5466;55.898;14.094;2023-11-19T07:12:28;22.88;;;13.00;;
10825;SDS011;5466;55.898;14.094;2023-11-19T07:14:28;20.98;;;13.10;;
10825;SDS011;5466;55.898;14.094;2023-11-19T07:16:29;18.75;;;12.80;;
10825;SDS011;5466;55.898;14.094;2023-11-19T07:18:30;20.02;;;13.45;;
10825;SDS011;5466;55.898;14.094;2023-11-19T07:20:31;21.20;;;12.73;;
10825;SDS011;5466;55.898;14.094;2023-11-19T07:22:33;18.40;;;11.93;;
10825;SDS011;5466;55.898;14.094;2023-11-19T07:24:33;20.33;;;12.70;;
10825;SDS011;5466;55.898;14.094;2023-11-19T07:26:34;20.48;;;13.30;;
10825;SDS011;5466;55.898;14.094;2023-11-19T07:28:34;20.85;;;12.30;;
10825;SDS011;5466;55.898;14.094;2023-11-19T07:30:35;21.45;;;13.10;;
10825;SDS011;5466;55.898;14.094;2023-11-19T07:32:36;19.48;;;12.82;;
10825;SDS011;5466;55.898;14.094;2023-11-19T07:34:38;21.45;;;13.23;;
10825;SDS011;5466;55.898;14.094;2023-11-19T07:36:40;22.35;;;13.70;;
10825;SDS011;5466;55.898;14.094;2023-11-19T07:38:45;22.05;;;12.20;;
10825;SDS011;5466;55.898;14.094;2023-11-19T07:40:46;24.58;;;13.38;;
10825;SDS011;5466;55.898;14.094;2023-11-19T07:42:47;17.25;;;12.38;;
10825;SDS011;5466;55.898;14.094;2023-11-19T07:44:48;18.90;;;12.20;;
10825;SDS011;5466;55.898;14.094;2023-11-19T07:46:49;19.45;;;12.43;;
10825;SDS011;5466;55.898;14.094;2023-11-19T07:48:49;19.13;;;11.75;;
10825;SDS011;5466;55.898;14.094;2023-11-19T07:50:50;17.30;;;12.10;;
10825;SDS011;5466;55.898;14.094;2023-11-19T07:52:51;16.58;;;11.65;;
10825;SDS011;5466;55.898;14.094;2023-11-19T07:54:52;19.27;;;12.05;;
10825;SDS011;5466;55.898;14.094;2023-11-19T07:56:54;18.27;;;12.30;;
10825;SDS011;5466;55.898;14.094;2023-11-19T07:58:55;17.40;;;10.82;;
10825;SDS011;5466;55.898;14.094;2023-11-19T08:00:55;16.92;;;10.93;;
10825;SDS011;5466;55.898;14.094;2023-11-19T08:02:56;16.35;;;11.68;;
10825;SDS011;5466;55.898;14.094;2023-11-19T08:04:57;19.48;;;12.20;;
10825;SDS011;5466;55.898;14.094;2023-11-19T08:06:57;16.95;;;11.75;;
10825;SDS011;5466;55.898;14.094;2023-11-19T08:08:58;18.90;;;11.18;;
10825;SDS011;5466;55.898;14.094;2023-11-19T08:10:59;18.05;;;10.85;;
10825;SDS011;5466;55.898;14.094;2023-11-19T08:13:00;16.23;;;11.50;;
10825;SDS011;5466;55.898;14.094;2023-11-19T08:15:04;16.15;;;11.18;;
10825;SDS011;5466;55.898;14.094;2023-11-19T08:17:05;20.95;;;11.73;;
10825;SDS011;5466;55.898;14.094;2023-11-19T08:19:06;14.13;;;9.52;;
10825;SDS011;5466;55.898;14.094;2023-11-19T08:21:08;20.35;;;11.82;;
10825;SDS011;5466;55.898;14.094;2023-11-19T08:23:09;16.92;;;11.60;;
10825;SDS011;5466;55.898;14.094;2023-11-19T08:25:24;16.58;;;11.02;;
10825;SDS011;5466;55.898;14.094;2023-11-19T08:27:25;16.70;;;10.80;;
10825;SDS011;5466;55.898;14.094;2023-11-19T08:29:26;16.75;;;10.82;;
10825;SDS011;5466;55.898;14.094;2023-11-19T08:31:27;18.00;;;11.60;;
10825;SDS011;5466;55.898;14.094;2023-11-19T08:33:28;13.00;;;10.15;;
10825;SDS011;5466;55.898;14.094;2023-11-19T08:35:29;17.05;;;11.98;;
10825;SDS011;5466;55.898;14.094;2023-11-19T08:37:30;19.02;;;11.38;;
10825;SDS011;5466;55.898;14.094;2023-11-19T08:39:31;13.85;;;10.38;;
10825;SDS011;5466;55.898;14.094;2023-11-19T08:41:31;15.10;;;10.15;;
10825;SDS011;5466;55.898;14.094;2023-11-19T08:43:32;15.25;;;10.65;;
10825;SDS011;5466;55.898;14.094;2023-11-19T08:45:32;17.08;;;10.95;;
10825;SDS011;5466;55.898;14.094;2023-11-19T08:47:33;14.10;;;9.60;;
10825;SDS011;5466;55.898;14.094;2023-11-19T08:49:34;11.75;;;8.95;;
10825;SDS011;5466;55.898;14.094;2023-11-19T08:51:35;14.07;;;10.55;;
10825;SDS011;5466;55.898;14.094;2023-11-19T08:53:35;15.90;;;10.77;;
10825;SDS011;5466;55.898;14.094;2023-11-19T08:55:36;16.85;;;11.43;;
10825;SDS011;5466;55.898;14.094;2023-11-19T08:57:37;18.08;;;11.32;;
10825;SDS011;5466;55.898;14.094;2023-11-19T08:59:38;15.55;;;9.85;;
10825;SDS011;5466;55.898;14.094;2023-11-19T09:01:38;18.35;;;10.95;;
10825;SDS011;5466;55.898;14.094;2023-11-19T09:03:39;16.55;;;10.32;;
10825;SDS011;5466;55.898;14.094;2023-11-19T09:05:40;14.88;;;9.77;;
10825;SDS011;5466;55.898;14.094;2023-11-19T09:07:40;14.30;;;10.05;;
10825;SDS011;5466;55.898;14.094;2023-11-19T09:09:41;13.43;;;9.07;;
10825;SDS011;5466;55.898;14.094;2023-11-19T09:11:42;14.75;;;10.55;;
10825;SDS011;5466;55.898;14.094;2023-11-19T09:13:42;14.40;;;9.85;;
10825;SDS011;5466;55.898;14.094;2023-11-19T09:15:45;15.98;;;10.55;;
10825;SDS011;5466;55.898;14.094;2023-11-19T09:17:45;12.75;;;9.43;;
10825;SDS011;5466;55.898;14.094;2023-11-19T09:19:46;12.95;;;9.93;;
10825;SDS011;5466;55.898;14.094;2023-11-19T09:21:46;16.50;;;9.95;;
10825;SDS011;5466;55.898;14.094;2023-11-19T09:23:48;12.52;;;8.80;;
10825;SDS011;5466;55.898;14.094;2023-11-19T09:25:49;13.35;;;8.90;;
10825;SDS011;5466;55.898;14.094;2023-11-19T09:27:49;11.07;;;7.38;;
10825;SDS011;5466;55.898;14.094;2023-11-19T09:29:50;11.82;;;8.00;;
10825;SDS011;5466;55.898;14.094;2023-11-19T09:31:56;11.10;;;6.72;;
10825;SDS011;5466;55.898;14.094;2023-11-19T09:33:57;10.13;;;7.47;;
10825;SDS011;5466;55.898;14.094;2023-11-19T09:35:58;11.88;;;7.72;;
10825;SDS011;5466;55.898;14.094;2023-11-19T09:37:58;11.00;;;7.90;;
10825;SDS011;5466;55.898;14.094;2023-11-19T09:39:59;10.20;;;7.57;;
10825;SDS011;5466;55.898;14.094;2023-11-19T09:42:00;13.48;;;8.10;;
10825;SDS011;5466;55.898;14.094;2023-11-19T09:44:00;11.45;;;7.75;;
10825;SDS011;5466;55.898;14.094;2023-11-19T09:46:10;11.18;;;7.05;;
10825;SDS011;5466;55.898;14.094;2023-11-19T09:48:14;12.55;;;7.32;;
10825;SDS011;5466;55.898;14.094;2023-11-19T09:50:17;12.32;;;7.00;;
10825;SDS011;5466;55.898;14.094;2023-11-19T09:52:19;14.15;;;8.77;;
10825;SDS011;5466;55.898;14.094;2023-11-19T09:54:19;10.57;;;7.15;;
10825;SDS011;5466;55.898;14.094;2023-11-19T09:56:20;11.05;;;7.63;;
10825;SDS011;5466;55.898;14.094;2023-11-19T09:58:22;9.40;;;7.05;;
10825;SDS011;5466;55.898;14.094;2023-11-19T10:00:23;12.05;;;8.13;;
10825;SDS011;5466;55.898;14.094;2023-11-19T10:02:23;13.13;;;7.80;;
10825;SDS011;5466;55.898;14.094;2023-11-19T10:04:29;10.13;;;7.47;;
10825;SDS011;5466;55.898;14.094;2023-11-19T10:06:30;11.75;;;7.30;;
10825;SDS011;5466;55.898;14.094;2023-11-19T10:08:31;9.45;;;7.00;;
10825;SDS011;5466;55.898;14.094;2023-11-19T10:10:32;9.05;;;6.35;;
10825;SDS011;5466;55.898;14.094;2023-11-19T10:12:33;9.52;;;6.90;;
10825;SDS011;5466;55.898;14.094;2023-11-19T10:14:34;11.75;;;7.47;;
10825;SDS011;5466;55.898;14.094;2023-11-19T10:16:38;11.75;;;7.78;;
10825;SDS011;5466;55.898;14.094;2023-11-19T10:18:45;9.20;;;6.65;;
10825;SDS011;5466;55.898;14.094;2023-11-19T10:20:47;11.10;;;7.82;;
10825;SDS011;5466;55.898;14.094;2023-11-19T10:22:48;9.70;;;7.13;;
10825;SDS011;5466;55.898;14.094;2023-11-19T10:24:52;11.45;;;7.50;;
10825;SDS011;5466;55.898;14.094;2023-11-19T10:26:52;9.75;;;6.95;;
10825;SDS011;5466;55.898;14.094;2023-11-19T10:28:57;11.57;;;7.53;;
10825;SDS011;5466;55.898;14.094;2023-11-19T10:30:57;10.50;;;6.63;;
10825;SDS011;5466;55.898;14.094;2023-11-19T10:33:14;10.73;;;7.25;;
10825;SDS011;5466;55.898;14.094;2023-11-19T10:35:19;10.73;;;6.82;;
10825;SDS011;5466;55.898;14.094;2023-11-19T10:37:29;11.38;;;7.22;;
10825;SDS011;5466;55.898;14.094;2023-11-19T10:39:53;11.10;;;7.38;;
10825;SDS011;5466;55.898;14.094;2023-11-19T10:41:55;9.70;;;7.25;;
10825;SDS011;5466;55.898;14.094;2023-11-19T10:43:55;12.80;;;7.15;;
10825;SDS011;5466;55.898;14.094;2023-11-19T10:46:09;10.95;;;8.27;;
10825;SDS011;5466;55.898;14.094;2023-11-19T10:48:11;12.32;;;8.18;;
10825;SDS011;5466;55.898;14.094;2023-11-19T10:50:12;9.32;;;7.18;;
10825;SDS011;5466;55.898;14.094;2023-11-19T10:52:15;15.70;;;8.10;;
10825;SDS011;5466;55.898;14.094;2023-11-19T10:54:19;9.93;;;7.93;;
10825;SDS011;5466;55.898;14.094;2023-11-19T10:56:20;11.55;;;7.40;;
10825;SDS011;5466;55.898;14.094;2023-11-19T10:58:28;9.50;;;7.78;;
10825;SDS011;5466;55.898;14.094;2023-11-19T11:02:48;11.98;;;7.30;;
10825;SDS011;5466;55.898;14.094;2023-11-19T11:04:54;12.13;;;8.40;;
10825;SDS011;5466;55.898;14.094;2023-11-19T11:06:56;11.32;;;7.93;;
10825;SDS011;5466;55.898;14.094;2023-11-19T11:08:59;15.20;;;8.88;;
10825;SDS011;5466;55.898;14.094;2023-11-19T11:11:00;10.80;;;7.82;;
10825;SDS011;5466;55.898;14.094;2023-11-19T11:13:04;14.15;;;7.60;;
10825;SDS011;5466;55.898;14.094;2023-11-19T11:15:06;12.55;;;8.20;;
10825;SDS011;5466;55.898;14.094;2023-11-19T11:17:08;13.23;;;8.18;;
10825;SDS011;5466;55.898;14.094;2023-11-19T11:19:11;14.20;;;8.40;;
10825;SDS011;5466;55.898;14.094;2023-11-19T11:21:14;12.15;;;8.88;;
10825;SDS011;5466;55.898;14.094;2023-11-19T11:27:49;15.15;;;8.02;;
10825;SDS011;5466;55.898;14.094;2023-11-19T11:39:09;10.75;;;8.15;;
10825;SDS011;5466;55.898;14.094;2023-11-19T11:41:17;12.35;;;8.68;;
10825;SDS011;5466;55.898;14.094;2023-11-19T11:45:55;13.23;;;9.45;;
10825;SDS011;5466;55.898;14.094;2023-11-19T11:49:58;12.70;;;8.30;;
10825;SDS011;5466;55.898;14.094;2023-11-19T11:52:08;14.05;;;8.10;;
10825;SDS011;5466;55.898;14.094;2023-11-19T11:56:20;14.13;;;7.25;;
10825;SDS011;5466;55.898;14.094;2023-11-19T11:58:21;10.25;;;7.57;;
10825;SDS011;5466;55.898;14.094;2023-11-19T12:00:26;11.70;;;7.40;;
10825;SDS011;5466;55.898;14.094;2023-11-19T12:02:29;11.68;;;6.78;;
10825;SDS011;5466;55.898;14.094;2023-11-19T12:04:30;8.82;;;6.75;;
10825;SDS011;5466;55.898;14.094;2023-11-19T12:06:32;10.52;;;6.30;;
10825;SDS011;5466;55.898;14.094;2023-11-19T12:08:33;7.13;;;5.78;;
10825;SDS011;5466;55.898;14.094;2023-11-19T12:10:45;8.02;;;5.53;;
10825;SDS011;5466;55.898;14.094;2023-11-19T12:12:59;7.53;;;5.35;;
10825;SDS011;5466;55.898;14.094;2023-11-19T12:15:08;6.40;;;5.07;;
10825;SDS011;5466;55.898;14.094;2023-11-19T12:19:32;6.40;;;5.32;;
10825;SDS011;5466;55.898;14.094;2023-11-19T12:21:32;8.38;;;5.72;;
10825;SDS011;5466;55.898;14.094;2023-11-19T12:23:43;7.85;;;5.68;;
10825;SDS011;5466;55.898;14.094;2023-11-19T12:25:46;6.85;;;5.47;;
10825;SDS011;5466;55.898;14.094;2023-11-19T12:27:47;10.75;;;6.03;;